Latest Weather Observations for Lake Grace

IDW60801

Issued at 12:33 pm WST Thursday 30 March 2017 (issued every 30 minutes, with the page automatically refreshed every 10 minutes)

About weather observations | Map of weather stations | Latest weather observations for WA | Other Formats
Station Details ID: 010911 Name: LAKE GRACE Lat: -33.10 Lon: 118.46 Height: 286.0 m
Data from the previous 72 hours. | See also: Recent months at Lake Grace
Date/Time
WST
Temp
°C
App
Temp
°C
Dew
Point
°C
Rel
Hum
%
Delta-T
°C
Wind Press
QNH
hPa
Press
MSL
hPa
Rain since
9am
mm
Dir  Spd
km/h
Gust
km/h
Spd
kts
Gust
kts
30/12:30pm 21.6 18.3 4.7 33 8.4 NNE 11 19 6 10 1023.8 1022.8 0.0
30/12:00pm 21.0 17.5 5.4 36 7.8 N 13 20 7 11 1024.6 1023.5 0.0
30/11:30am 20.2 16.3 5.4 38 7.4 N 15 26 8 14 1025.1 1024.0 0.0
30/11:00am 19.9 16.1 5.9 40 7.0 NNE 15 22 8 12 1025.4 1024.3 0.0
30/10:30am 19.4 15.3 6.2 42 6.7 NE 17 28 9 15 1025.9 1024.8 0.0
30/10:00am 18.1 14.0 6.0 45 6.0 NNE 17 28 9 15 1026.0 1024.9 0.0
30/09:30am 16.9 12.7 5.5 47 5.6 NNE 17 28 9 15 1026.5 1025.5 0.0
30/09:00am 15.8 11.2 5.4 50 5.0 NNE 19 30 10 16 1026.8 1025.8 0.0
30/08:30am 14.8 10.3 5.9 55 4.3 NE 19 28 10 15 1026.9 1025.9 0.0
30/08:00am 13.0 8.2 5.4 60 3.6 NE 20 30 11 16 1027.0 1026.0 0.0
30/07:30am 11.8 8.3 5.4 65 3.0 NE 13 24 7 13 1026.9 1025.9 0.0
30/07:00am 10.4 6.8 5.0 69 2.5 NE 13 22 7 12 1026.7 1025.7 0.0
30/06:30am 9.7 6.0 4.7 71 2.3 NE 13 19 7 10 1026.7 1025.7 0.0
30/06:00am 9.8 5.4 4.6 70 2.3 ENE 17 28 9 15 1026.3 1025.2 0.0
30/05:30am 9.8 5.0 4.6 70 2.4 ENE 19 28 10 15 1026.2 1025.1 0.0
30/05:00am 9.8 5.0 4.6 70 2.3 ENE 19 28 10 15 1026.2 1025.1 0.0
30/04:30am 9.9 5.5 4.7 70 2.4 NE 17 28 9 15 1026.4 1025.3 0.0
30/04:00am 9.9 5.5 4.7 70 2.4 NE 17 28 9 15 1026.3 1025.2 0.0
30/03:30am 10.0 5.2 4.8 70 2.4 ENE 19 24 10 13 1026.2 1025.1 0.0
30/03:00am 10.1 5.7 4.9 70 2.4 ENE 17 26 9 14 1026.4 1025.3 0.0
30/02:30am 10.2 5.3 5.0 70 2.4 ENE 20 32 11 17 1026.3 1025.2 0.0
30/02:00am 10.4 5.1 5.0 69 2.5 E 22 30 12 16 1026.4 1025.3 0.0
30/01:30am 10.5 5.2 5.1 69 2.5 E 22 32 12 17 1026.6 1025.6 0.0
30/01:00am 10.3 5.5 4.9 69 2.5 E 19 30 10 16 1026.6 1025.6 0.0
30/12:30am 10.7 5.9 4.8 67 2.7 E 19 30 10 16 1026.7 1025.7 0.0
30/12:00am 10.8 6.4 4.9 67 2.7 E 17 28 9 15 1026.6 1025.6 0.0
 
Date/Time
WST
Temp
°C
App
Temp
°C
Dew
Point
°C
Rel
Hum
%
Delta-T
°C
Wind Press
QNH
hPa
Press
MSL
hPa
Rain since
9am
mm
Dir  Spd
km/h
Gust
km/h
Spd
kts
Gust
kts
29/11:30pm 10.9 6.1 4.8 66 2.8 E 19 28 10 15 1026.8 1025.8 0.0
29/11:00pm 11.2 6.5 5.1 66 2.8 ESE 19 33 10 18 1026.8 1025.8 0.0
29/10:30pm 11.4 6.7 5.1 65 2.9 ESE 19 30 10 16 1026.9 1025.9 0.0
29/10:00pm 11.8 6.9 5.0 63 3.1 ESE 20 32 11 17 1026.9 1025.9 0.0
29/09:30pm 12.1 7.1 4.8 61 3.4 ESE 20 33 11 18 1027.1 1026.1 0.0
29/09:00pm 12.4 7.0 4.6 59 3.6 ESE 22 35 12 19 1027.2 1026.2 0.0
29/08:30pm 12.9 7.5 4.3 56 4.0 ESE 22 32 12 17 1027.1 1026.1 0.0
29/08:00pm 13.6 8.2 4.5 54 4.2 ESE 22 35 12 19 1026.9 1025.9 0.0
29/07:30pm 14.4 9.2 3.8 49 4.9 ESE 20 28 11 15 1026.6 1025.6 0.0
29/07:00pm 15.3 10.2 3.1 44 5.6 ESE 19 30 10 16 1026.2 1025.1 0.0
29/06:30pm 16.3 11.6 3.4 42 6.0 ESE 17 26 9 14 1025.7 1024.6 0.0
29/06:00pm 17.5 12.2 1.9 35 7.1 ESE 19 28 10 15 1025.5 1024.4 0.0
29/05:30pm 18.5 13.1 1.1 31 7.9 ESE 19 30 10 16 1025.3 1024.2 0.0
29/05:00pm 19.4 13.8 0.9 29 8.4 ESE 20 28 11 15 1025.1 1024.0 0.0
29/04:30pm 20.1 14.6 2.0 30 8.5 ESE 20 32 11 17 1025.0 1023.9 0.0
29/04:00pm 20.4 14.7 0.3 26 9.1 ESE 20 35 11 19 1024.8 1023.7 0.0
29/03:30pm 20.5 14.4 0.4 26 9.1 ESE 22 35 12 19 1024.9 1023.8 0.0
29/03:00pm 20.6 15.3 2.0 29 8.7 ESE 19 30 10 16 1024.8 1023.7 0.0
29/02:30pm 20.1 14.1 1.0 28 8.7 ESE 22 33 12 18 1024.9 1023.8 0.0
29/02:00pm 20.0 14.2 2.4 31 8.2 ESE 22 35 12 19 1025.1 1024.0 0.0
29/01:30pm 20.6 15.5 3.3 32 8.3 E 19 32 10 17 1025.2 1024.1 0.0
29/01:00pm 19.7 14.7 3.4 34 7.8 E 19 32 10 17 1025.5 1024.4 0.0
29/12:30pm 18.5 13.2 2.8 35 7.4 ESE 20 30 11 16 1025.8 1024.7 0.0
29/12:00pm 18.0 13.3 3.1 37 7.0 ESE 17 28 9 15 1026.3 1025.2 0.0
29/11:30am 17.6 12.6 3.5 39 6.7 ESE 19 30 10 16 1026.6 1025.6 0.0
29/11:00am 17.0 11.8 3.7 41 6.2 ESE 20 32 11 17 1026.8 1025.8 0.0
29/10:30am 16.9 12.7 5.5 47 5.6 SE 17 28 9 15 1027.0 1026.0 0.0
29/10:00am 15.9 11.1 4.6 47 5.4 SE 19 28 10 15 1027.0 1026.0 0.0
29/09:30am 15.2 9.4 4.3 48 5.1 SE 24 33 13 18 1027.0 1026.0 0.0
29/09:00am 15.2 10.3 4.3 48 5.1 ESE 19 35 10 19 1026.7 1025.7 0.0
29/08:30am 14.1 9.3 4.4 52 4.5 SE 19 28 10 15 1026.6 1025.6 0.0
29/08:00am 13.1 8.7 5.0 58 3.8 ESE 17 24 9 13 1026.3 1025.2 0.0
29/07:30am 11.4 8.9 6.7 73 2.3 SE 9 15 5 8 1026.0 1024.9 0.0
29/07:00am 9.2 6.9 5.8 79 1.6 SE 7 11 4 6 1025.8 1024.7 0.0
29/06:30am 8.6 6.2 5.2 79 1.5 SSE 7 13 4 7 1025.3 1024.2 0.0
29/06:00am 8.7 6.3 5.1 78 1.6 SSE 7 11 4 6 1025.1 1024.0 0.0
29/05:30am 9.0 6.6 5.4 78 1.7 SE 7 9 4 5 1024.8 1023.7 0.0
29/05:00am 9.4 6.3 5.4 76 1.8 SSE 11 15 6 8 1024.5 1023.4 0.0
29/04:30am 9.3 6.2 5.5 77 1.8 SSE 11 15 6 8 1024.0 1023.0 0.0
29/04:00am 9.7 6.6 5.7 76 1.8 SSE 11 15 6 8 1023.7 1022.7 0.0
29/03:30am 10.2 6.8 6.0 75 2.0 S 13 19 7 10 1023.4 1022.4 0.0
29/03:00am 10.8 7.1 6.2 73 2.2 SSE 15 20 8 11 1023.2 1022.1 0.0
29/02:30am 11.1 7.5 6.8 75 2.1 SSE 15 22 8 12 1023.0 1021.9 0.0
29/02:00am 11.4 8.8 7.9 79 1.7 SSE 11 17 6 9 1022.8 1021.7 0.0
29/01:30am 11.7 8.7 7.8 77 1.9 SSE 13 19 7 10 1022.5 1021.4 0.0
29/01:00am 12.4 9.1 7.9 74 2.2 S 15 22 8 12 1022.2 1021.1 0.0
29/12:30am 12.9 8.9 8.2 73 2.4 S 19 30 10 16 1022.0 1020.9 0.0
29/12:00am 13.4 9.2 8.3 71 2.6 S 20 30 11 16 1021.8 1020.7 0.0
 
Date/Time
WST
Temp
°C
App
Temp
°C
Dew
Point
°C
Rel
Hum
%
Delta-T
°C
Wind Press
QNH
hPa
Press
MSL
hPa
Rain since
9am
mm
Dir  Spd
km/h
Gust
km/h
Spd
kts
Gust
kts
28/11:30pm 13.6 11.0 9.3 75 2.2 S 13 20 7 11 1021.4 1020.3 0.0
28/11:00pm 13.8 9.9 8.8 72 2.6 S 19 30 10 16 1021.1 1020.0 0.0
28/10:30pm 13.9 10.3 9.7 76 2.2 S 19 30 10 16 1021.1 1020.0 0.0
28/10:00pm 14.4 9.9 10.0 75 2.3 S 24 37 13 20 1021.1 1020.0 0.0
28/09:30pm 14.6 10.4 11.0 79 1.9 S 24 41 13 22 1020.8 1019.7 0.0
28/09:00pm 16.5 12.2 10.6 68 3.2 S 24 35 13 19 1020.1 1019.0 0.0
28/08:30pm 17.5 14.1 9.2 58 4.4 S 17 24 9 13 1019.6 1018.5 0.0
28/08:00pm 18.2 15.2 9.3 56 4.7 S 15 24 8 13 1019.1 1018.0 0.0
28/07:30pm 18.9 15.9 9.4 54 5.1 S 15 24 8 13 1018.4 1017.3 0.0
28/07:00pm 19.4 16.7 9.0 51 5.5 S 13 20 7 11 1017.9 1016.8 0.0
28/06:30pm 20.8 18.1 9.1 47 6.3 SW 13 20 7 11 1017.5 1016.4 0.0
28/06:00pm 21.6 18.5 8.8 44 6.9 WSW 15 22 8 12 1017.1 1015.9 0.0
28/05:30pm 22.2 18.9 9.4 44 7.0 SW 17 26 9 14 1016.7 1015.6 0.0
28/05:00pm 23.0 20.1 9.8 43 7.3 WSW 15 22 8 12 1016.7 1015.6 0.0
28/04:30pm 22.8 19.2 9.9 44 7.1 WSW 19 26 10 14 1016.6 1015.5 0.0
28/04:00pm 23.1 20.4 10.2 44 7.2 WSW 15 26 8 14 1016.3 1015.2 0.0
28/03:30pm 23.2 20.2 10.6 45 7.0 W 17 24 9 13 1016.3 1015.2 0.0
28/03:00pm 22.4 19.6 11.2 49 6.3 WSW 17 24 9 13 1016.2 1015.1 0.0
28/02:30pm 22.2 19.3 11.0 49 6.3 WSW 17 26 9 14 1016.3 1015.2 0.0
28/02:00pm 21.2 18.7 11.2 53 5.6 SW 15 24 8 13 1016.6 1015.5 0.0
28/01:30pm 20.3 17.3 10.7 54 5.3 SW 17 30 9 16 1017.1 1015.9 0.0
28/01:00pm 19.9 17.1 11.4 58 4.7 WSW 17 28 9 15 1017.5 1016.4 0.0
28/12:30pm 18.2 15.2 10.8 62 4.0 SW 17 26 9 14 1017.9 1016.8 0.0
28/12:00pm 17.9 14.4 11.0 64 3.8 SW 20 32 11 17 1018.5 1017.4 0.0
28/11:30am 17.6 14.3 10.9 65 3.7 SW 19 30 10 16 1018.6 1017.5 0.0
28/11:00am 17.8 14.7 10.4 62 4.0 WSW 17 24 9 13 1018.4 1017.3 0.0
28/10:30am 17.6 15.4 10.9 65 3.7 WSW 13 20 7 11 1018.7 1017.6 0.0
28/10:00am 16.2 13.5 10.5 69 3.1 WSW 15 22 8 12 1018.8 1017.7 0.0
28/09:30am 14.9 11.8 10.3 74 2.4 WSW 17 24 9 13 1018.9 1017.8 0.0
28/09:00am 14.8 12.5 10.4 75 2.3 SW 13 24 7 13 1018.9 1017.8 0.0
28/08:30am 14.8 12.2 10.8 77 2.1 SW 15 20 8 11 1018.9 1017.8 0.0
28/08:00am 13.9 12.4 10.7 81 1.7 WSW 9 13 5 7 1018.9 1017.8 0.0
28/07:30am 12.3 12.4 10.2 87 1.1 CALM 0 2 0 1 1018.8 1017.7 0.0
28/07:00am 10.4 9.0 8.8 90 0.8 N 6 7 3 4 1018.7 1017.6 0.0
28/06:30am 9.4 8.9 7.7 89 0.8 CALM 0 0 0 0 1018.7 1017.6 0.0
28/06:00am 8.9 8.3 7.2 89 0.8 CALM 0 0 0 0 1018.7 1017.6 0.0
28/05:30am 9.5 8.9 7.6 88 0.9 CALM 0 0 0 0 1018.6 1017.5 0.0
28/05:00am 9.2 8.6 7.2 87 1.0 CALM 0 0 0 0 1018.3 1017.2 0.0
28/04:30am 10.0 9.5 7.8 86 1.1 CALM 0 0 0 0 1018.4 1017.3 0.0
28/04:00am 10.5 10.1 8.3 86 1.1 CALM 0 0 0 0 1018.4 1017.3 0.0
28/03:30am 10.7 10.3 8.1 84 1.3 CALM 0 0 0 0 1018.6 1017.5 0.0
28/03:00am 11.1 10.8 8.5 84 1.3 CALM 0 0 0 0 1018.8 1017.7 0.0
28/02:30am 11.2 10.8 8.4 83 1.4 CALM 0 0 0 0 1018.8 1017.7 0.0
28/02:00am 11.6 11.3 8.6 82 1.5 CALM 0 0 0 0 1019.2 1018.1 0.0
28/01:30am 12.0 11.0 8.8 81 1.6 SSE 4 7 2 4 1019.3 1018.2 0.0
28/01:00am 12.3 10.9 8.8 79 1.8 SSE 6 7 3 4 1019.2 1018.1 0.0
28/12:30am 12.8 11.2 8.9 77 2.0 S 7 11 4 6 1019.3 1018.2 0.0
28/12:00am 12.7 11.2 8.6 76 2.1 SSE 6 7 3 4 1019.2 1018.1 0.0
 
Date/Time
WST
Temp
°C
App
Temp
°C
Dew
Point
°C
Rel
Hum
%
Delta-T
°C
Wind Press
QNH
hPa
Press
MSL
hPa
Rain since
9am
mm
Dir  Spd
km/h
Gust
km/h
Spd
kts
Gust
kts
27/11:30pm 12.8 11.3 8.3 74 2.3 SSW 6 7 3 4 1019.1 1018.0 0.0
27/11:00pm 12.1 11.6 7.8 75 2.1 CALM 0 0 0 0 1019.3 1018.2 0.0
27/10:30pm 12.1 11.5 7.4 73 2.3 CALM 0 0 0 0 1019.0 1017.9 0.0
27/10:00pm 13.5 13.1 8.1 70 2.7 CALM 0 0 0 0 1019.3 1018.2 0.0
27/09:30pm 14.1 13.7 8.3 68 2.9 CALM 0 0 0 0 1019.4 1018.3 0.0
27/09:00pm 15.0 14.5 8.0 63 3.5 CALM 0 0 0 0 1019.4 1018.3 0.0
27/08:30pm 15.9 14.7 7.9 59 4.1 S 4 6 2 3 1019.4 1018.3 0.0
27/08:00pm 16.7 15.0 7.6 55 4.6 SSW 6 9 3 5 1019.4 1018.3 0.0
27/07:30pm 17.4 15.5 7.5 52 5.1 SSW 7 11 4 6 1019.4 1018.3 0.0
27/07:00pm 18.2 15.7 6.7 47 5.8 SW 9 15 5 8 1019.3 1018.2 0.0
27/06:30pm 18.7 15.9 6.9 46 6.0 SW 11 17 6 9 1019.2 1018.1 0.0
27/06:00pm 19.6 16.8 7.0 44 6.4 SW 11 17 6 9 1019.1 1018.0 0.0
27/05:30pm 20.8 17.9 6.7 40 7.2 WSW 11 15 6 8 1019.0 1017.9 0.0
27/05:00pm 21.4 18.4 6.1 37 7.8 WSW 11 17 6 9 1019.1 1018.0 0.0
27/04:30pm 21.7 18.5 5.2 34 8.3 WSW 11 20 6 11 1019.1 1018.0 0.0
27/04:00pm 22.3 19.1 5.3 33 8.6 WNW 11 22 6 12 1019.3 1018.2 0.0
27/03:30pm 21.4 17.6 4.0 32 8.5 WSW 13 20 7 11 1019.5 1018.4 0.0
27/03:00pm 22.0 18.7 4.6 32 8.6 W 11 20 6 11 1019.6 1018.5 0.0
27/02:30pm 21.2 17.1 4.3 33 8.3 W 15 24 8 13 1019.9 1018.8 0.0
27/02:00pm 20.5 16.7 4.1 34 8.0 WSW 13 22 7 12 1020.1 1019.0 0.0
27/01:30pm 20.8 17.6 5.2 36 7.8 SW 11 17 6 9 1020.4 1019.4 0.0
27/01:00pm 20.4 17.2 5.2 37 7.5 NNW 11 19 6 10 1021.0 1019.9 0.0

Other Formats:

Comma delimited format used in spreadsheet applications
http://www.bom.gov.au/fwo/IDW60801/IDW60801.95637.axf

JavaScript Object Notation format (JSON) in row-major order
http://www.bom.gov.au/fwo/IDW60801/IDW60801.95637.json